createdAt,value
2018-03-16T00:03:42.656Z,19.00
2018-03-16T00:06:10.444Z,24.50
2018-03-16T00:08:38.155Z,16.90
2018-03-16T00:11:05.881Z,25.63
2018-03-16T00:13:33.649Z,16.83
2018-03-16T00:16:01.414Z,21.67
2018-03-16T00:18:29.187Z,22.13
2018-03-16T00:20:56.936Z,21.70
2018-03-16T00:23:24.645Z,25.17
2018-03-16T00:25:52.388Z,14.57
2018-03-16T00:28:20.098Z,14.40
2018-03-16T00:30:47.839Z,15.30
2018-03-16T00:33:15.532Z,15.63
2018-03-16T00:35:43.217Z,16.47
2018-03-16T00:38:10.942Z,18.60
2018-03-16T00:40:38.670Z,31.93
2018-03-16T00:43:06.399Z,22.57
2018-03-16T00:45:34.198Z,14.50
2018-03-16T00:48:01.939Z,19.07
2018-03-16T00:50:29.685Z,22.73
2018-03-16T00:52:57.419Z,24.90
2018-03-16T00:55:25.097Z,21.27
2018-03-16T00:57:52.830Z,22.23
2018-03-16T01:00:20.582Z,20.67
2018-03-16T01:02:48.317Z,20.47
2018-03-16T01:05:16.011Z,22.80
2018-03-16T01:07:43.740Z,16.97
2018-03-16T01:10:11.431Z,21.07
2018-03-16T01:12:39.170Z,17.30
2018-03-16T01:15:06.911Z,20.57
2018-03-16T01:17:34.646Z,18.20
2018-03-16T01:20:02.342Z,21.93
2018-03-16T01:22:30.136Z,17.43
2018-03-16T01:24:57.836Z,16.50
2018-03-16T01:27:25.613Z,26.00
2018-03-16T01:29:53.344Z,17.70
2018-03-16T01:32:21.067Z,20.77
2018-03-16T01:34:48.799Z,20.30
2018-03-16T01:37:16.501Z,19.23
2018-03-16T01:39:44.236Z,17.30
2018-03-16T01:42:12.023Z,21.20
2018-03-16T01:44:39.765Z,21.13
2018-03-16T01:47:07.487Z,16.47
2018-03-16T01:49:35.236Z,20.83
2018-03-16T01:52:02.988Z,21.27
2018-03-16T01:54:30.727Z,24.27
2018-03-16T01:56:58.444Z,21.07
2018-03-16T01:59:26.140Z,24.73
2018-03-16T02:01:53.870Z,17.17
2018-03-16T02:04:21.562Z,22.03
2018-03-16T02:06:49.291Z,25.07
2018-03-16T02:09:16.986Z,21.40
2018-03-16T02:11:44.715Z,27.57
2018-03-16T02:14:12.403Z,22.40
2018-03-16T02:16:40.136Z,22.17
2018-03-16T02:19:07.835Z,20.00
2018-03-16T02:21:35.553Z,21.27
2018-03-16T02:24:03.299Z,21.17
2018-03-16T02:26:31.039Z,16.77
2018-03-16T02:28:58.813Z,21.20
2018-03-16T02:31:26.514Z,18.57
2018-03-16T02:33:54.311Z,21.93
2018-03-16T02:36:22.051Z,17.37
2018-03-16T02:38:49.785Z,18.57
2018-03-16T02:41:17.478Z,21.20
2018-03-16T02:43:45.200Z,17.43
2018-03-16T02:46:12.927Z,18.33
2018-03-16T02:48:40.657Z,16.80
2018-03-16T02:51:08.349Z,16.03
2018-03-16T02:53:36.073Z,16.10
2018-03-16T02:56:03.769Z,18.20
2018-03-16T02:58:31.557Z,17.53
2018-03-16T03:00:59.251Z,17.17
2018-03-16T03:03:26.997Z,17.93
2018-03-16T03:05:54.697Z,15.97
2018-03-16T03:08:22.429Z,16.43
2018-03-16T03:10:50.117Z,19.50
2018-03-16T03:13:17.854Z,16.93
2018-03-16T03:15:45.550Z,18.60
2018-03-16T03:18:13.279Z,17.97
2018-03-16T03:20:40.966Z,19.53
2018-03-16T03:23:08.701Z,17.20
2018-03-16T03:25:36.385Z,15.23
2018-03-16T03:28:04.141Z,18.83
2018-03-16T03:30:31.880Z,17.50
2018-03-16T03:32:59.646Z,21.87
2018-03-16T03:35:27.387Z,17.67
2018-03-16T03:37:55.122Z,19.57
2018-03-16T03:40:22.810Z,13.33
2018-03-16T03:42:50.536Z,21.27
2018-03-16T03:45:18.261Z,14.10
2018-03-16T03:47:45.962Z,17.97
2018-03-16T03:50:13.733Z,14.77
2018-03-16T03:52:41.420Z,15.17
2018-03-16T03:55:09.151Z,14.20
2018-03-16T03:57:36.837Z,19.80
2018-03-16T04:00:04.593Z,17.83
2018-03-16T04:02:32.293Z,11.97
2018-03-16T04:05:00.022Z,16.03
2018-03-16T04:07:27.722Z,16.77
2018-03-16T04:09:55.450Z,15.27
2018-03-16T04:12:23.131Z,12.70
2018-03-16T04:14:50.940Z,12.13
2018-03-16T04:17:18.657Z,19.47
2018-03-16T04:19:46.387Z,14.00
2018-03-16T04:22:14.133Z,13.40
2018-03-16T04:24:41.863Z,16.10
2018-03-16T04:27:10.412Z,18.47
2018-03-16T04:29:38.160Z,16.80
2018-03-16T04:32:05.885Z,18.47
2018-03-16T04:34:33.621Z,16.73
2018-03-16T04:37:01.382Z,14.80
2018-03-16T04:39:29.866Z,16.20
2018-03-16T04:41:57.595Z,14.70
2018-03-16T04:44:25.266Z,13.97
2018-03-16T04:46:52.993Z,17.80
2018-03-16T04:49:20.670Z,12.17
2018-03-16T04:51:48.421Z,14.87
2018-03-16T04:54:16.143Z,10.30
2018-03-16T04:56:43.892Z,13.17
2018-03-16T04:59:11.645Z,16.57
2018-03-16T05:01:39.393Z,9.70
2018-03-16T05:04:07.075Z,8.97
2018-03-16T05:06:34.905Z,15.53
2018-03-16T05:09:02.596Z,15.97
2018-03-16T05:11:30.381Z,13.70
2018-03-16T05:13:58.088Z,15.90
2018-03-16T05:16:25.826Z,18.27
2018-03-16T05:18:53.549Z,13.00
2018-03-16T05:21:21.271Z,13.63
2018-03-16T05:23:49.017Z,15.17
2018-03-16T05:26:16.704Z,10.40
2018-03-16T05:28:44.457Z,11.57
2018-03-16T05:31:12.223Z,13.33
2018-03-16T05:33:39.980Z,10.50
2018-03-16T05:36:07.742Z,12.17
2018-03-16T05:38:35.543Z,16.43
2018-03-16T05:41:03.265Z,13.33
2018-03-16T05:43:31.060Z,16.73
2018-03-16T05:45:58.789Z,12.03
2018-03-16T05:48:26.579Z,15.90
2018-03-16T05:50:54.318Z,12.50
2018-03-16T05:53:22.073Z,14.43
2018-03-16T05:55:49.818Z,14.30
2018-03-16T05:58:17.625Z,12.47
2018-03-16T06:00:45.389Z,12.13
2018-03-16T06:03:13.140Z,11.70
2018-03-16T06:05:40.857Z,13.60
2018-03-16T06:08:09.658Z,12.90
2018-03-16T06:10:37.452Z,13.77
2018-03-16T06:13:05.196Z,10.67
2018-03-16T06:15:32.956Z,11.13
2018-03-16T06:18:00.730Z,13.30
2018-03-16T06:20:28.537Z,11.13
2018-03-16T06:22:56.303Z,10.00
2018-03-16T06:25:23.999Z,11.20
2018-03-16T06:27:51.735Z,12.03
2018-03-16T06:30:19.505Z,14.57
2018-03-16T06:32:47.268Z,7.97
2018-03-16T06:35:15.049Z,9.37
2018-03-16T06:37:42.736Z,9.93
2018-03-16T06:40:10.492Z,15.87
2018-03-16T06:42:38.201Z,11.90
2018-03-16T06:45:05.996Z,10.10
2018-03-16T06:47:33.720Z,12.03
2018-03-16T06:50:01.466Z,9.03
2018-03-16T06:52:29.195Z,7.30
2018-03-16T06:54:56.961Z,12.10
2018-03-16T06:57:24.667Z,9.23
2018-03-16T06:59:52.500Z,10.10
2018-03-16T07:02:20.257Z,11.63
2018-03-16T07:04:48.046Z,10.13
2018-03-16T07:07:15.812Z,10.43
2018-03-16T07:09:43.550Z,6.97
2018-03-16T07:12:11.268Z,9.27
2018-03-16T07:14:39.025Z,8.63
2018-03-16T07:17:06.744Z,10.80
2018-03-16T07:19:34.548Z,8.40
2018-03-16T07:22:02.272Z,8.20
2018-03-16T07:24:30.020Z,7.27
2018-03-16T07:26:57.735Z,6.27
2018-03-16T07:29:25.475Z,8.00
2018-03-16T07:31:53.235Z,12.33
2018-03-16T07:34:21.019Z,7.10
2018-03-16T07:36:48.853Z,6.80
2018-03-16T07:39:16.573Z,8.10
2018-03-16T07:41:44.320Z,7.63
2018-03-16T07:44:12.076Z,6.17
2018-03-16T07:46:39.827Z,6.77
2018-03-16T07:49:07.532Z,9.03
2018-03-16T07:51:35.322Z,5.87
2018-03-16T07:54:03.080Z,7.73
2018-03-16T07:56:30.881Z,4.93
2018-03-16T07:58:58.631Z,7.57
2018-03-16T08:01:26.405Z,6.53
2018-03-16T08:03:54.164Z,4.20
2018-03-16T08:06:21.891Z,7.67
2018-03-16T08:08:49.706Z,6.70
2018-03-16T08:11:17.430Z,7.93
2018-03-16T08:13:45.221Z,7.80
2018-03-16T08:16:12.954Z,8.07
2018-03-16T08:18:40.653Z,6.03
2018-03-16T08:21:08.419Z,9.20
2018-03-16T08:23:36.134Z,7.37
2018-03-16T08:26:03.900Z,14.77
2018-03-16T08:28:31.684Z,9.33
2018-03-16T08:30:59.458Z,8.20
2018-03-16T08:33:27.239Z,5.80
2018-03-16T08:35:54.974Z,11.83
2018-03-16T08:38:22.683Z,8.67
2018-03-16T08:40:50.491Z,6.90
2018-03-16T08:43:18.202Z,7.03
2018-03-16T08:45:45.942Z,4.63
2018-03-16T08:48:14.593Z,8.70
2018-03-16T08:50:45.899Z,6.53
2018-03-16T08:53:15.820Z,8.90
2018-03-16T08:55:44.143Z,7.80
2018-03-16T08:58:11.995Z,7.40
2018-03-16T09:00:39.740Z,9.90
2018-03-16T09:03:07.495Z,6.33
2018-03-16T09:05:35.258Z,8.37
2018-03-16T09:08:03.040Z,7.63
2018-03-16T09:10:30.800Z,8.83
2018-03-16T09:12:58.589Z,6.53
2018-03-16T09:15:26.360Z,6.00
2018-03-16T09:17:54.174Z,7.50
2018-03-16T09:20:21.924Z,6.57
2018-03-16T09:22:49.723Z,5.60
2018-03-16T09:25:17.466Z,5.30
2018-03-16T09:27:45.263Z,6.37
2018-03-16T09:30:13.037Z,6.57
2018-03-16T09:32:40.838Z,6.23
2018-03-16T09:35:08.582Z,7.10
2018-03-16T09:37:36.396Z,7.70
2018-03-16T09:40:04.237Z,7.90
2018-03-16T09:42:32.020Z,5.83
2018-03-16T09:44:59.859Z,6.00
2018-03-16T09:47:27.804Z,6.67
2018-03-16T09:50:06.549Z,7.47
2018-03-16T09:52:34.468Z,7.20
2018-03-16T09:55:13.972Z,6.80
2018-03-16T09:57:41.806Z,5.27
2018-03-16T10:00:09.732Z,7.67
2018-03-16T10:02:37.506Z,6.47
2018-03-16T10:05:05.400Z,6.83
2018-03-16T10:07:33.109Z,6.93
2018-03-16T10:10:00.872Z,5.93
2018-03-16T10:12:28.589Z,7.07
2018-03-16T10:14:56.357Z,3.30
2018-03-16T10:17:24.067Z,3.37
2018-03-16T10:19:51.817Z,6.43
2018-03-16T10:22:19.522Z,5.67
2018-03-16T10:24:47.332Z,6.57
2018-03-16T10:27:15.030Z,4.10
2018-03-16T10:29:42.782Z,4.50
2018-03-16T10:32:10.472Z,5.20
2018-03-16T10:34:38.213Z,5.27
2018-03-16T10:37:05.936Z,5.20
2018-03-16T10:39:33.677Z,4.70
2018-03-16T10:42:01.354Z,4.07
2018-03-16T10:44:29.092Z,5.50
2018-03-16T10:46:56.782Z,7.37
2018-03-16T10:49:24.501Z,7.73
2018-03-16T10:51:52.218Z,5.13
2018-03-16T10:54:19.987Z,4.30
2018-03-16T10:56:47.752Z,3.90
2018-03-16T10:59:15.485Z,7.30
2018-03-16T11:01:48.879Z,6.37
2018-03-16T11:04:16.568Z,7.33
2018-03-16T11:07:00.041Z,6.27
2018-03-16T11:09:42.636Z,5.23
2018-03-16T11:12:10.374Z,5.10
2018-03-16T11:14:38.070Z,5.57
2018-03-16T11:17:05.842Z,7.50
2018-03-16T11:19:33.568Z,5.00
2018-03-16T11:22:01.319Z,6.00
2018-03-16T11:24:29.061Z,3.33
2018-03-16T11:26:56.790Z,10.13
2018-03-16T11:29:24.504Z,10.23
2018-03-16T11:31:52.262Z,4.83
2018-03-16T11:34:19.981Z,5.10
2018-03-16T11:36:47.785Z,5.37
2018-03-16T11:39:15.544Z,8.50
2018-03-16T11:41:43.443Z,5.67
2018-03-16T11:44:11.188Z,8.33
2018-03-16T11:46:38.913Z,4.33
2018-03-16T11:49:06.725Z,6.40
2018-03-16T11:51:34.559Z,5.80
2018-03-16T11:54:02.356Z,3.77
2018-03-16T11:56:30.320Z,6.20
2018-03-16T11:58:58.205Z,8.93
2018-03-16T12:01:25.983Z,5.07
2018-03-16T12:03:53.707Z,4.63
2018-03-16T12:06:21.458Z,4.30
2018-03-16T12:08:49.278Z,3.27
2018-03-16T12:11:16.996Z,5.00
2018-03-16T12:13:44.735Z,4.30
2018-03-16T12:16:12.496Z,4.60
2018-03-16T12:18:40.261Z,4.80
2018-03-16T12:21:08.005Z,5.53
2018-03-16T12:23:35.807Z,6.73
2018-03-16T12:26:03.574Z,3.60
2018-03-16T12:28:49.374Z,5.90
2018-03-16T12:30:59.209Z,3.40
2018-03-16T12:33:26.944Z,4.10
2018-03-16T12:35:54.701Z,2.47
2018-03-16T12:38:22.552Z,3.33
2018-03-16T12:40:50.281Z,3.57
2018-03-16T12:43:18.076Z,3.03
2018-03-16T12:45:46.267Z,5.33
2018-03-16T12:48:14.037Z,6.93
2018-03-16T12:50:41.756Z,4.03
2018-03-16T12:53:09.508Z,3.77
2018-03-16T12:55:37.383Z,2.80
2018-03-16T12:58:05.290Z,5.13
2018-03-16T13:00:33.006Z,3.20
2018-03-16T13:03:00.858Z,4.20
2018-03-16T13:05:28.791Z,4.27
2018-03-16T13:07:56.535Z,2.90
2018-03-16T13:10:24.442Z,5.13
2018-03-16T13:12:52.237Z,3.40
2018-03-16T13:15:20.530Z,3.00
2018-03-16T13:17:48.680Z,2.43
2018-03-16T13:20:16.412Z,2.00
2018-03-16T13:22:44.156Z,2.10
2018-03-16T13:25:11.922Z,4.30
2018-03-16T13:27:39.602Z,3.90
2018-03-16T13:30:07.357Z,2.20
2018-03-16T13:32:35.110Z,3.00
2018-03-16T13:35:02.816Z,3.20
2018-03-16T13:37:30.561Z,3.40
2018-03-16T13:39:58.297Z,2.60
2018-03-16T13:42:26.019Z,2.53
2018-03-16T13:44:53.799Z,3.60
2018-03-16T13:47:21.641Z,3.93
2018-03-16T13:49:49.421Z,3.00
2018-03-16T13:52:17.133Z,2.87
2018-03-16T13:54:44.974Z,2.67
2018-03-16T13:57:12.709Z,3.30
2018-03-16T13:59:40.467Z,4.07
2018-03-16T14:02:08.203Z,2.50
2018-03-16T14:04:35.989Z,3.17
2018-03-16T14:07:03.857Z,2.10
2018-03-16T14:09:31.793Z,4.57
2018-03-16T14:11:59.522Z,4.70
2018-03-16T14:14:27.259Z,6.53
2018-03-16T14:16:55.028Z,2.00
2018-03-16T14:19:22.721Z,2.70
2018-03-16T14:21:50.505Z,6.40
2018-03-16T14:24:18.340Z,2.60
2018-03-16T14:26:46.216Z,3.60
2018-03-16T14:29:13.920Z,3.07
2018-03-16T14:31:41.698Z,2.67
2018-03-16T14:34:09.415Z,4.20
2018-03-16T14:36:37.184Z,5.23
2018-03-16T14:39:07.900Z,3.20
2018-03-16T14:41:35.650Z,5.23
2018-03-16T14:44:03.388Z,3.13
2018-03-16T14:46:31.109Z,2.63
2018-03-16T14:48:58.862Z,5.10
2018-03-16T14:51:26.585Z,3.60
2018-03-16T14:53:54.340Z,3.87
2018-03-16T14:56:22.241Z,3.30
2018-03-16T14:58:49.948Z,2.90
2018-03-16T15:01:17.742Z,5.80
2018-03-16T15:03:45.673Z,3.03
2018-03-16T15:06:13.431Z,2.73
2018-03-16T15:08:41.298Z,11.67
2018-03-16T15:11:09.013Z,5.67
2018-03-16T15:13:36.753Z,3.07
2018-03-16T15:16:04.471Z,4.00
2018-03-16T15:18:32.233Z,2.83
2018-03-16T15:20:59.956Z,6.43
2018-03-16T15:23:27.717Z,3.10
2018-03-16T15:25:55.409Z,4.20
2018-03-16T15:28:23.138Z,3.87
2018-03-16T15:30:50.829Z,2.60
2018-03-16T15:33:18.566Z,3.27
2018-03-16T15:35:46.250Z,4.40
2018-03-16T15:38:13.931Z,2.30
2018-03-16T15:40:41.638Z,3.10
2018-03-16T15:43:09.333Z,2.53
2018-03-16T15:45:37.075Z,3.87
2018-03-16T15:48:04.751Z,3.50
2018-03-16T15:50:32.470Z,3.63
2018-03-16T15:53:00.132Z,4.47
2018-03-16T15:55:27.870Z,2.63
2018-03-16T15:57:55.566Z,3.23
2018-03-16T16:00:23.295Z,3.60
2018-03-16T16:02:50.983Z,3.83
2018-03-16T16:05:18.703Z,2.47
2018-03-16T16:07:46.538Z,3.67
2018-03-16T16:10:14.260Z,2.80
2018-03-16T16:12:41.950Z,1.63
2018-03-16T16:15:09.708Z,4.20
2018-03-16T16:17:37.442Z,6.73
2018-03-16T16:20:05.208Z,5.57
2018-03-16T16:22:32.906Z,2.00
2018-03-16T16:25:00.638Z,3.93
2018-03-16T16:27:28.467Z,3.83
2018-03-16T16:29:56.153Z,4.20
2018-03-16T16:32:23.806Z,2.07
2018-03-16T16:34:51.526Z,1.00
2018-03-16T16:37:19.191Z,3.60
2018-03-16T16:39:47.005Z,3.90
2018-03-16T16:42:14.693Z,2.60
2018-03-16T16:44:42.464Z,4.93
2018-03-16T16:47:10.213Z,2.10
2018-03-16T16:49:37.866Z,3.33
2018-03-16T16:52:05.614Z,2.83
2018-03-16T16:54:33.275Z,2.47
2018-03-16T16:57:00.965Z,3.60
2018-03-16T16:59:28.745Z,2.90
2018-03-16T17:01:56.466Z,3.40
2018-03-16T17:04:24.196Z,2.90
2018-03-16T17:06:51.939Z,3.13
2018-03-16T17:09:19.644Z,3.57
2018-03-16T17:11:47.304Z,3.53
2018-03-16T17:14:15.023Z,3.27
2018-03-16T17:16:42.864Z,1.63
2018-03-16T17:19:10.582Z,2.33
2018-03-16T17:21:38.267Z,9.73
2018-03-16T17:24:05.969Z,2.67
2018-03-16T17:26:33.660Z,4.63
2018-03-16T17:29:01.467Z,6.03
2018-03-16T17:31:29.271Z,4.67
2018-03-16T17:33:57.015Z,3.00
2018-03-16T17:36:24.852Z,3.43
2018-03-16T17:38:52.576Z,3.10
2018-03-16T17:41:20.391Z,1.60
2018-03-16T17:43:48.196Z,6.70
2018-03-16T17:46:15.983Z,2.10
2018-03-16T17:48:43.786Z,3.40
2018-03-16T17:51:11.542Z,2.60
2018-03-16T17:53:39.275Z,4.77
2018-03-16T17:56:07.128Z,2.10
2018-03-16T17:58:34.883Z,2.20
2018-03-16T18:01:02.658Z,2.10
2018-03-16T18:03:30.427Z,3.43
2018-03-16T18:05:58.274Z,2.03
2018-03-16T18:08:25.991Z,2.17
2018-03-16T18:10:53.846Z,1.70
2018-03-16T18:13:21.809Z,1.33
2018-03-16T18:15:49.616Z,2.05
2018-03-16T18:18:17.346Z,1.60
2018-03-16T18:20:45.142Z,2.00
2018-03-16T18:23:12.875Z,2.85
2018-03-16T18:25:40.522Z,2.30
2018-03-16T18:28:08.303Z,3.22
2018-03-16T18:30:36.075Z,2.45
2018-03-16T18:33:03.897Z,1.30
2018-03-16T18:35:31.632Z,6.57
2018-03-16T18:37:59.477Z,4.10
2018-03-16T18:40:27.326Z,4.00
2018-03-16T18:42:55.169Z,3.47
2018-03-16T18:45:22.959Z,1.20
2018-03-16T18:47:50.799Z,3.17
2018-03-16T18:50:18.591Z,2.70
2018-03-16T18:52:46.505Z,2.17
2018-03-16T18:55:14.330Z,2.60
2018-03-16T18:57:42.150Z,1.40
2018-03-16T19:00:09.887Z,2.65
2018-03-16T19:02:37.714Z,2.55
2018-03-16T19:05:05.468Z,2.47
2018-03-16T19:07:33.291Z,3.03
2018-03-16T19:10:01.049Z,1.27
2018-03-16T19:12:28.866Z,3.00
2018-03-16T19:14:56.614Z,1.70
2018-03-16T19:17:24.443Z,1.62
2018-03-16T19:19:52.147Z,2.10
2018-03-16T19:22:19.993Z,5.10
2018-03-16T19:24:47.787Z,2.45
2018-03-16T19:27:15.552Z,2.03
2018-03-16T19:29:43.351Z,4.22
2018-03-16T19:32:11.181Z,2.72
2018-03-16T19:34:39.013Z,3.65
2018-03-16T19:37:06.753Z,2.20
2018-03-16T19:39:34.605Z,2.03
2018-03-16T19:42:02.460Z,2.42
2018-03-16T19:44:30.251Z,2.33
2018-03-16T19:46:57.981Z,3.08
2018-03-16T19:49:25.834Z,2.15
2018-03-16T19:51:53.678Z,6.53
2018-03-16T19:54:21.548Z,1.33
2018-03-16T19:56:49.359Z,7.28
2018-03-16T19:59:17.207Z,2.00
2018-03-16T20:01:45.034Z,1.58
2018-03-16T20:04:12.973Z,2.00
2018-03-16T20:06:40.710Z,5.00
2018-03-16T20:09:08.503Z,3.72
2018-03-16T20:11:36.254Z,3.80
2018-03-16T20:14:04.099Z,5.12
2018-03-16T20:16:31.814Z,6.95
2018-03-16T20:18:59.684Z,3.17
2018-03-16T20:21:27.393Z,6.93
2018-03-16T20:23:55.051Z,2.65
2018-03-16T20:26:22.966Z,2.42
2018-03-16T20:28:50.701Z,4.18
2018-03-16T20:31:18.604Z,3.12
2018-03-16T20:33:46.421Z,2.65
2018-03-16T20:36:14.245Z,3.72
2018-03-16T20:38:42.008Z,2.83
2018-03-16T20:41:09.818Z,2.33
2018-03-16T20:43:37.589Z,2.35
2018-03-16T20:46:05.402Z,8.63
2018-03-16T20:48:33.163Z,2.30
2018-03-16T20:51:00.987Z,2.05
2018-03-16T20:53:28.831Z,1.85
2018-03-16T20:55:56.622Z,4.50
2018-03-16T20:58:24.361Z,3.97
2018-03-16T21:00:52.224Z,3.67
2018-03-16T21:03:19.940Z,1.35
2018-03-16T21:05:47.806Z,2.30
2018-03-16T21:08:15.531Z,2.37
2018-03-16T21:10:43.379Z,4.03
2018-03-16T21:13:11.173Z,2.53
2018-03-16T21:15:39.072Z,2.33
2018-03-16T21:18:06.906Z,1.08
2018-03-16T21:20:34.682Z,1.53
2018-03-16T21:23:02.472Z,1.75
2018-03-16T21:25:30.270Z,2.75
2018-03-16T21:27:58.146Z,2.92
2018-03-16T21:30:25.865Z,1.80
2018-03-16T21:32:53.718Z,3.05
2018-03-16T21:35:21.504Z,3.05
2018-03-16T21:37:49.227Z,1.75
2018-03-16T21:40:17.046Z,1.83
2018-03-16T21:42:44.774Z,1.52
2018-03-16T21:45:12.474Z,4.65
2018-03-16T21:47:40.218Z,3.05
2018-03-16T21:50:07.938Z,3.35
2018-03-16T21:52:35.665Z,1.80
2018-03-16T21:55:03.411Z,3.22
2018-03-16T21:57:31.180Z,2.17
2018-03-16T21:59:58.906Z,2.22
2018-03-16T22:02:26.620Z,3.55
2018-03-16T22:04:54.309Z,5.22
2018-03-16T22:07:22.106Z,11.12
2018-03-16T22:09:49.760Z,1.62
2018-03-16T22:12:17.449Z,2.90
2018-03-16T22:14:45.134Z,2.08
2018-03-16T22:17:12.930Z,2.72
2018-03-16T22:19:40.656Z,3.62
2018-03-16T22:22:08.389Z,3.67
2018-03-16T22:24:36.054Z,4.12
2018-03-16T22:27:03.795Z,1.70
2018-03-16T22:29:31.474Z,1.70
2018-03-16T22:31:59.152Z,2.25
2018-03-16T22:34:26.845Z,2.47
2018-03-16T22:36:54.558Z,1.75
2018-03-16T22:39:22.289Z,4.35
2018-03-16T22:41:49.938Z,2.90
2018-03-16T22:44:17.723Z,3.30
2018-03-16T22:46:45.419Z,2.33
2018-03-16T22:49:13.142Z,3.37
2018-03-16T22:51:40.898Z,2.25
2018-03-16T22:54:08.583Z,3.33
2018-03-16T22:56:36.277Z,3.85
2018-03-16T22:59:04.000Z,2.28
2018-03-16T23:01:31.716Z,3.20
2018-03-16T23:03:59.519Z,3.47
2018-03-16T23:06:27.227Z,2.10
2018-03-16T23:08:55.001Z,2.47
2018-03-16T23:11:22.674Z,6.53
2018-03-16T23:13:50.425Z,1.98
2018-03-16T23:16:18.291Z,1.55
2018-03-16T23:18:46.027Z,2.75
2018-03-16T23:21:13.834Z,2.50
2018-03-16T23:23:41.678Z,2.78
2018-03-16T23:26:09.441Z,3.55
2018-03-16T23:28:37.234Z,1.33
2018-03-16T23:31:04.969Z,2.87
2018-03-16T23:33:32.800Z,6.05
2018-03-16T23:36:00.466Z,4.00
2018-03-16T23:38:28.265Z,2.55
2018-03-16T23:40:56.025Z,1.60
2018-03-16T23:43:23.840Z,2.72
2018-03-16T23:45:51.630Z,2.30
2018-03-16T23:48:19.400Z,1.80
2018-03-16T23:50:47.215Z,1.62
2018-03-16T23:53:14.930Z,1.55
2018-03-16T23:55:42.657Z,2.20
2018-03-16T23:58:11.144Z,1.80
